sensor_id;sensor_type;location;lat;lon;timestamp;pressure;altitude;pressure_sealevel;temperature;humidity
77723;BME280;67811;42.656;23.394;2023-05-24T00:00:15;94860.22;;;11.44;71.35
77723;BME280;67811;42.656;23.394;2023-05-24T00:02:41;94870.03;;;11.44;71.49
77723;BME280;67811;42.656;23.394;2023-05-24T00:05:09;94864.06;;;11.42;71.71
77723;BME280;67811;42.656;23.394;2023-05-24T00:07:37;94863.50;;;11.46;71.87
77723;BME280;67811;42.656;23.394;2023-05-24T00:10:03;94873.31;;;11.52;71.53
77723;BME280;67811;42.656;23.394;2023-05-24T00:12:29;94864.56;;;11.58;71.57
77723;BME280;67811;42.656;23.394;2023-05-24T00:14:54;94868.72;;;11.68;71.26
77723;BME280;67811;42.656;23.394;2023-05-24T00:17:19;94864.34;;;11.81;71.03
77723;BME280;67811;42.656;23.394;2023-05-24T00:19:44;94862.91;;;11.85;70.47
77723;BME280;67811;42.656;23.394;2023-05-24T00:22:10;94864.16;;;11.96;70.28
77723;BME280;67811;42.656;23.394;2023-05-24T00:24:35;94857.00;;;11.90;69.83
77723;BME280;67811;42.656;23.394;2023-05-24T00:27:00;94864.69;;;11.78;69.88
77723;BME280;67811;42.656;23.394;2023-05-24T00:29:25;94869.97;;;11.72;70.65
77723;BME280;67811;42.656;23.394;2023-05-24T00:31:51;94869.38;;;11.76;70.58
77723;BME280;67811;42.656;23.394;2023-05-24T00:34:16;94878.53;;;11.74;69.87
77723;BME280;67811;42.656;23.394;2023-05-24T00:36:41;94875.81;;;11.60;70.40
77723;BME280;67811;42.656;23.394;2023-05-24T00:39:06;94867.63;;;11.55;70.70
77723;BME280;67811;42.656;23.394;2023-05-24T00:41:32;94856.59;;;11.52;71.06
77723;BME280;67811;42.656;23.394;2023-05-24T00:43:57;94860.63;;;11.48;71.46
77723;BME280;67811;42.656;23.394;2023-05-24T00:46:32;94859.56;;;11.70;70.70
77723;BME280;67811;42.656;23.394;2023-05-24T00:48:59;94858.31;;;11.73;69.77
77723;BME280;67811;42.656;23.394;2023-05-24T00:51:26;94858.28;;;11.59;70.65
77723;BME280;67811;42.656;23.394;2023-05-24T00:53:52;94860.06;;;11.59;70.69
77723;BME280;67811;42.656;23.394;2023-05-24T00:56:19;94859.53;;;11.35;71.60
77723;BME280;67811;42.656;23.394;2023-05-24T00:58:44;94864.53;;;11.17;72.37
77723;BME280;67811;42.656;23.394;2023-05-24T01:01:10;94861.72;;;10.97;73.37
77723;BME280;67811;42.656;23.394;2023-05-24T01:03:35;94859.38;;;10.81;74.56
77723;BME280;67811;42.656;23.394;2023-05-24T01:06:02;94863.03;;;10.59;75.41
77723;BME280;67811;42.656;23.394;2023-05-24T01:16:43;94861.91;;;10.46;76.74
77723;BME280;67811;42.656;23.394;2023-05-24T01:19:23;94860.34;;;10.31;77.45
77723;BME280;67811;42.656;23.394;2023-05-24T01:24:52;94874.34;;;10.24;77.69
77723;BME280;67811;42.656;23.394;2023-05-24T01:27:20;94882.72;;;10.28;77.65
77723;BME280;67811;42.656;23.394;2023-05-24T01:29:47;94892.88;;;10.24;77.50
77723;BME280;67811;42.656;23.394;2023-05-24T01:32:12;94884.44;;;10.21;77.62
77723;BME280;67811;42.656;23.394;2023-05-24T01:34:38;94885.94;;;10.23;77.89
77723;BME280;67811;42.656;23.394;2023-05-24T01:37:03;94884.56;;;10.27;77.67
77723;BME280;67811;42.656;23.394;2023-05-24T01:39:29;94884.91;;;10.24;77.64
77723;BME280;67811;42.656;23.394;2023-05-24T01:49:58;94873.00;;;10.78;75.44
77723;BME280;67811;42.656;23.394;2023-05-24T01:52:30;94870.72;;;10.75;75.10
77723;BME280;67811;42.656;23.394;2023-05-24T01:54:57;94881.09;;;10.70;75.46
77723;BME280;67811;42.656;23.394;2023-05-24T01:57:25;94886.59;;;10.68;75.41
77723;BME280;67811;42.656;23.394;2023-05-24T01:59:51;94883.88;;;10.62;76.08
77723;BME280;67811;42.656;23.394;2023-05-24T02:02:18;94875.69;;;10.57;76.34
77723;BME280;67811;42.656;23.394;2023-05-24T02:04:44;94874.97;;;10.48;76.98
77723;BME280;67811;42.656;23.394;2023-05-24T02:07:09;94870.22;;;10.43;77.30
77723;BME280;67811;42.656;23.394;2023-05-24T02:09:34;94867.97;;;10.40;77.21
77723;BME280;67811;42.656;23.394;2023-05-24T02:12:00;94874.53;;;10.44;77.42
77723;BME280;67811;42.656;23.394;2023-05-24T02:14:25;94862.47;;;10.63;76.67
77723;BME280;67811;42.656;23.394;2023-05-24T02:16:50;94871.38;;;10.55;76.72
77723;BME280;67811;42.656;23.394;2023-05-24T02:19:16;94869.41;;;10.43;77.31
77723;BME280;67811;42.656;23.394;2023-05-24T02:21:42;94868.09;;;10.32;78.02
77723;BME280;67811;42.656;23.394;2023-05-24T02:24:08;94861.59;;;10.35;77.82
77723;BME280;67811;42.656;23.394;2023-05-24T02:26:33;94861.72;;;10.26;77.58
77723;BME280;67811;42.656;23.394;2023-05-24T02:28:58;94860.75;;;10.13;78.26
77723;BME280;67811;42.656;23.394;2023-05-24T02:31:24;94857.91;;;10.14;78.51
77723;BME280;67811;42.656;23.394;2023-05-24T02:33:49;94864.56;;;10.10;78.82
77723;BME280;67811;42.656;23.394;2023-05-24T02:36:14;94858.66;;;10.08;78.73
77723;BME280;67811;42.656;23.394;2023-05-24T02:38:39;94873.81;;;9.99;78.72
77723;BME280;67811;42.656;23.394;2023-05-24T02:41:05;94866.47;;;9.80;79.38
77723;BME280;67811;42.656;23.394;2023-05-24T02:43:30;94857.84;;;9.57;80.02
77723;BME280;67811;42.656;23.394;2023-05-24T02:45:55;94857.03;;;9.41;80.33
77723;BME280;67811;42.656;23.394;2023-05-24T02:48:21;94857.38;;;9.38;80.76
77723;BME280;67811;42.656;23.394;2023-05-24T02:50:46;94862.84;;;9.37;81.20
77723;BME280;67811;42.656;23.394;2023-05-24T02:53:11;94864.97;;;9.41;81.06
77723;BME280;67811;42.656;23.394;2023-05-24T02:55:37;94855.56;;;9.54;80.71
77723;BME280;67811;42.656;23.394;2023-05-24T02:58:02;94863.75;;;9.59;80.16
77723;BME280;67811;42.656;23.394;2023-05-24T03:00:27;94864.13;;;9.56;80.35
77723;BME280;67811;42.656;23.394;2023-05-24T03:02:52;94863.22;;;9.63;79.89
77723;BME280;67811;42.656;23.394;2023-05-24T03:05:18;94857.19;;;9.69;79.35
77723;BME280;67811;42.656;23.394;2023-05-24T03:07:43;94863.91;;;9.72;79.35
77723;BME280;67811;42.656;23.394;2023-05-24T03:10:09;94865.00;;;9.77;78.82
77723;BME280;67811;42.656;23.394;2023-05-24T03:12:34;94866.94;;;9.84;78.39
77723;BME280;67811;42.656;23.394;2023-05-24T03:14:59;94873.03;;;9.84;78.54
77723;BME280;67811;42.656;23.394;2023-05-24T03:17:25;94881.13;;;9.83;78.67
77723;BME280;67811;42.656;23.394;2023-05-24T03:19:50;94879.31;;;9.83;78.67
77723;BME280;67811;42.656;23.394;2023-05-24T03:22:15;94888.53;;;9.87;78.28
77723;BME280;67811;42.656;23.394;2023-05-24T03:24:40;94881.13;;;9.97;78.09
77723;BME280;67811;42.656;23.394;2023-05-24T03:27:06;94878.94;;;10.01;77.92
77723;BME280;67811;42.656;23.394;2023-05-24T03:29:31;94883.31;;;9.94;78.77
77723;BME280;67811;42.656;23.394;2023-05-24T03:31:56;94884.50;;;9.91;78.55
77723;BME280;67811;42.656;23.394;2023-05-24T03:34:22;94889.69;;;9.99;78.32
77723;BME280;67811;42.656;23.394;2023-05-24T03:36:47;94893.81;;;10.02;78.63
77723;BME280;67811;42.656;23.394;2023-05-24T03:39:12;94891.91;;;9.96;78.84
77723;BME280;67811;42.656;23.394;2023-05-24T03:41:38;94902.69;;;9.94;79.18
77723;BME280;67811;42.656;23.394;2023-05-24T03:44:03;94908.75;;;10.10;78.44
77723;BME280;67811;42.656;23.394;2023-05-24T03:46:28;94892.22;;;10.22;77.72
77723;BME280;67811;42.656;23.394;2023-05-24T03:48:54;94897.34;;;10.24;77.50
77723;BME280;67811;42.656;23.394;2023-05-24T03:51:19;94890.84;;;10.26;77.47
77723;BME280;67811;42.656;23.394;2023-05-24T03:53:44;94891.91;;;10.32;77.60
77723;BME280;67811;42.656;23.394;2023-05-24T03:56:09;94892.00;;;10.39;77.52
77723;BME280;67811;42.656;23.394;2023-05-24T03:58:35;94888.50;;;10.38;77.43
77723;BME280;67811;42.656;23.394;2023-05-24T04:01:00;94896.28;;;10.40;77.46
77723;BME280;67811;42.656;23.394;2023-05-24T04:03:26;94893.91;;;10.45;77.28
77723;BME280;67811;42.656;23.394;2023-05-24T04:05:52;94899.53;;;10.57;76.70
77723;BME280;67811;42.656;23.394;2023-05-24T04:08:17;94909.88;;;10.73;76.40
77723;BME280;67811;42.656;23.394;2023-05-24T04:10:43;94899.41;;;10.93;75.91
77723;BME280;67811;42.656;23.394;2023-05-24T04:13:08;94904.88;;;11.13;74.89
77723;BME280;67811;42.656;23.394;2023-05-24T04:15:33;94904.84;;;11.34;73.25
77723;BME280;67811;42.656;23.394;2023-05-24T04:17:59;94894.31;;;11.47;72.97
77723;BME280;67811;42.656;23.394;2023-05-24T04:20:24;94903.16;;;11.54;71.62
77723;BME280;67811;42.656;23.394;2023-05-24T04:22:50;94904.03;;;11.68;71.96
77723;BME280;67811;42.656;23.394;2023-05-24T04:25:15;94905.31;;;11.79;71.25
77723;BME280;67811;42.656;23.394;2023-05-24T04:27:41;94907.44;;;11.90;70.88
77723;BME280;67811;42.656;23.394;2023-05-24T04:30:06;94906.84;;;11.95;70.42
77723;BME280;67811;42.656;23.394;2023-05-24T04:32:32;94906.38;;;12.26;69.68
77723;BME280;67811;42.656;23.394;2023-05-24T04:34:57;94901.69;;;12.34;69.10
77723;BME280;67811;42.656;23.394;2023-05-24T04:37:22;94908.50;;;12.63;68.27
77723;BME280;67811;42.656;23.394;2023-05-24T04:39:47;94906.69;;;12.90;67.43
77723;BME280;67811;42.656;23.394;2023-05-24T04:42:14;94912.66;;;12.99;66.52
77723;BME280;67811;42.656;23.394;2023-05-24T04:44:39;94904.50;;;13.27;65.83
77723;BME280;67811;42.656;23.394;2023-05-24T04:47:05;94909.63;;;13.35;66.05
77723;BME280;67811;42.656;23.394;2023-05-24T04:49:34;94920.06;;;13.37;65.09
77723;BME280;67811;42.656;23.394;2023-05-24T04:51:59;94922.50;;;13.45;65.34
77723;BME280;67811;42.656;23.394;2023-05-24T04:54:24;94915.97;;;13.41;64.65
77723;BME280;67811;42.656;23.394;2023-05-24T04:56:50;94920.06;;;13.37;64.97
77723;BME280;67811;42.656;23.394;2023-05-24T04:59:15;94923.94;;;13.41;65.00
77723;BME280;67811;42.656;23.394;2023-05-24T05:01:40;94927.41;;;13.28;65.88
77723;BME280;67811;42.656;23.394;2023-05-24T05:04:05;94916.97;;;13.40;65.60
77723;BME280;67811;42.656;23.394;2023-05-24T05:06:31;94927.59;;;13.66;65.76
77723;BME280;67811;42.656;23.394;2023-05-24T05:08:56;94924.06;;;13.92;64.83
77723;BME280;67811;42.656;23.394;2023-05-24T05:11:21;94925.91;;;14.50;65.71
77723;BME280;67811;42.656;23.394;2023-05-24T05:13:46;94927.97;;;14.48;65.71
77723;BME280;67811;42.656;23.394;2023-05-24T05:16:12;94932.50;;;14.47;66.41
77723;BME280;67811;42.656;23.394;2023-05-24T05:18:37;94920.72;;;14.93;65.41
77723;BME280;67811;42.656;23.394;2023-05-24T05:21:03;94922.84;;;14.85;64.43
77723;BME280;67811;42.656;23.394;2023-05-24T05:23:29;94929.91;;;14.66;64.70
77723;BME280;67811;42.656;23.394;2023-05-24T05:25:54;94930.41;;;15.19;64.53
77723;BME280;67811;42.656;23.394;2023-05-24T05:28:20;94925.00;;;15.26;64.11
77723;BME280;67811;42.656;23.394;2023-05-24T05:30:45;94928.78;;;15.68;62.94
77723;BME280;67811;42.656;23.394;2023-05-24T05:33:10;94928.00;;;15.61;62.24
77723;BME280;67811;42.656;23.394;2023-05-24T05:35:36;94925.47;;;15.73;60.82
77723;BME280;67811;42.656;23.394;2023-05-24T05:38:01;94930.06;;;15.59;61.86
77723;BME280;67811;42.656;23.394;2023-05-24T05:40:26;94930.53;;;15.99;60.92
77723;BME280;67811;42.656;23.394;2023-05-24T05:42:51;94933.03;;;16.31;61.22
77723;BME280;67811;42.656;23.394;2023-05-24T05:45:17;94924.56;;;16.52;60.09
77723;BME280;67811;42.656;23.394;2023-05-24T05:47:42;94933.31;;;16.78;58.42
77723;BME280;67811;42.656;23.394;2023-05-24T05:50:08;94928.16;;;16.95;56.89
77723;BME280;67811;42.656;23.394;2023-05-24T05:52:33;94926.00;;;16.85;57.47
77723;BME280;67811;42.656;23.394;2023-05-24T05:54:59;94932.66;;;16.82;56.88
77723;BME280;67811;42.656;23.394;2023-05-24T05:57:24;94931.56;;;16.72;55.94
77723;BME280;67811;42.656;23.394;2023-05-24T05:59:49;94928.94;;;16.65;57.22
77723;BME280;67811;42.656;23.394;2023-05-24T06:02:15;94923.75;;;17.00;56.80
77723;BME280;67811;42.656;23.394;2023-05-24T06:04:40;94931.38;;;17.38;55.94
77723;BME280;67811;42.656;23.394;2023-05-24T06:07:05;94933.97;;;17.57;55.18
77723;BME280;67811;42.656;23.394;2023-05-24T06:09:30;94934.72;;;17.87;53.74
77723;BME280;67811;42.656;23.394;2023-05-24T06:11:56;94943.22;;;18.08;52.98
77723;BME280;67811;42.656;23.394;2023-05-24T06:14:21;94939.34;;;18.15;52.94
77723;BME280;67811;42.656;23.394;2023-05-24T06:16:46;94934.69;;;18.11;52.92
77723;BME280;67811;42.656;23.394;2023-05-24T06:19:12;94939.81;;;18.36;53.00
77723;BME280;67811;42.656;23.394;2023-05-24T06:21:37;94940.88;;;18.75;51.48
77723;BME280;67811;42.656;23.394;2023-05-24T06:24:03;94938.19;;;19.04;51.86
77723;BME280;67811;42.656;23.394;2023-05-24T06:26:28;94933.19;;;19.24;50.15
77723;BME280;67811;42.656;23.394;2023-05-24T06:28:54;94927.25;;;19.39;50.31
77723;BME280;67811;42.656;23.394;2023-05-24T06:31:20;94929.53;;;19.47;49.76
77723;BME280;67811;42.656;23.394;2023-05-24T06:33:45;94935.41;;;19.78;48.66
77723;BME280;67811;42.656;23.394;2023-05-24T06:36:10;94928.31;;;19.88;47.61
77723;BME280;67811;42.656;23.394;2023-05-24T06:38:35;94926.63;;;19.82;48.38
77723;BME280;67811;42.656;23.394;2023-05-24T06:41:01;94936.22;;;20.12;47.53
77723;BME280;67811;42.656;23.394;2023-05-24T06:43:26;94926.56;;;20.55;46.72
77723;BME280;67811;42.656;23.394;2023-05-24T06:45:51;94932.63;;;20.89;47.58
77723;BME280;67811;42.656;23.394;2023-05-24T06:48:16;94924.53;;;21.38;45.60
77723;BME280;67811;42.656;23.394;2023-05-24T06:50:42;94922.63;;;21.11;45.09
77723;BME280;67811;42.656;23.394;2023-05-24T06:53:07;94928.81;;;21.12;44.77
77723;BME280;67811;42.656;23.394;2023-05-24T06:55:32;94919.31;;;21.31;44.19
77723;BME280;67811;42.656;23.394;2023-05-24T06:57:58;94921.34;;;21.78;43.75
77723;BME280;67811;42.656;23.394;2023-05-24T07:00:23;94914.16;;;21.94;43.21
77723;BME280;67811;42.656;23.394;2023-05-24T07:02:48;94922.72;;;22.75;41.73
77723;BME280;67811;42.656;23.394;2023-05-24T07:05:13;94912.50;;;22.30;42.05
77723;BME280;67811;42.656;23.394;2023-05-24T07:07:42;94914.69;;;22.33;42.19
77723;BME280;67811;42.656;23.394;2023-05-24T07:10:09;94912.28;;;23.04;41.25
77723;BME280;67811;42.656;23.394;2023-05-24T07:12:35;94917.50;;;23.67;39.70
77723;BME280;67811;42.656;23.394;2023-05-24T07:15:01;94912.31;;;23.20;41.03
77723;BME280;67811;42.656;23.394;2023-05-24T07:17:26;94911.25;;;23.26;40.44
77723;BME280;67811;42.656;23.394;2023-05-24T07:19:52;94920.72;;;23.44;40.31
77723;BME280;67811;42.656;23.394;2023-05-24T07:22:17;94918.84;;;23.95;40.53
77723;BME280;67811;42.656;23.394;2023-05-24T07:24:42;94918.59;;;23.97;39.34
77723;BME280;67811;42.656;23.394;2023-05-24T07:27:08;94922.13;;;23.92;39.22
77723;BME280;67811;42.656;23.394;2023-05-24T07:29:33;94927.72;;;23.14;39.72
77723;BME280;67811;42.656;23.394;2023-05-24T07:31:58;94920.78;;;23.64;39.98
77723;BME280;67811;42.656;23.394;2023-05-24T07:34:23;94925.34;;;23.84;38.72
77723;BME280;67811;42.656;23.394;2023-05-24T07:36:49;94924.25;;;23.54;40.37
77723;BME280;67811;42.656;23.394;2023-05-24T07:39:15;94919.94;;;23.94;39.97
77723;BME280;67811;42.656;23.394;2023-05-24T07:41:40;94918.53;;;24.37;39.54
77723;BME280;67811;42.656;23.394;2023-05-24T07:44:06;94925.91;;;23.76;39.56
77723;BME280;67811;42.656;23.394;2023-05-24T07:46:31;94922.91;;;24.13;38.92
77723;BME280;67811;42.656;23.394;2023-05-24T07:48:57;94920.94;;;24.44;39.09
77723;BME280;67811;42.656;23.394;2023-05-24T07:51:22;94923.06;;;24.67;38.49
77723;BME280;67811;42.656;23.394;2023-05-24T07:53:47;94917.63;;;24.73;38.05
77723;BME280;67811;42.656;23.394;2023-05-24T07:56:12;94915.00;;;24.42;38.40
77723;BME280;67811;42.656;23.394;2023-05-24T07:58:38;94914.97;;;24.52;38.83
77723;BME280;67811;42.656;23.394;2023-05-24T08:01:03;94915.06;;;25.46;37.57
77723;BME280;67811;42.656;23.394;2023-05-24T08:03:28;94906.19;;;25.74;36.44
77723;BME280;67811;42.656;23.394;2023-05-24T08:05:53;94908.72;;;25.95;35.37
77723;BME280;67811;42.656;23.394;2023-05-24T08:08:19;94906.03;;;25.90;35.23
77723;BME280;67811;42.656;23.394;2023-05-24T08:10:44;94907.69;;;26.15;34.37
77723;BME280;67811;42.656;23.394;2023-05-24T08:13:09;94912.63;;;26.37;33.82
77723;BME280;67811;42.656;23.394;2023-05-24T08:15:35;94912.38;;;26.38;34.28
77723;BME280;67811;42.656;23.394;2023-05-24T08:18:00;94913.09;;;26.92;33.62
77723;BME280;67811;42.656;23.394;2023-05-24T08:20:25;94910.94;;;26.70;33.02
77723;BME280;67811;42.656;23.394;2023-05-24T08:22:50;94902.78;;;27.50;31.59
77723;BME280;67811;42.656;23.394;2023-05-24T08:25:16;94909.03;;;27.51;31.09
77723;BME280;67811;42.656;23.394;2023-05-24T08:27:41;94901.19;;;27.12;30.43
77723;BME280;67811;42.656;23.394;2023-05-24T08:30:07;94905.03;;;26.87;32.16
77723;BME280;67811;42.656;23.394;2023-05-24T08:32:33;94904.25;;;27.05;29.76
77723;BME280;67811;42.656;23.394;2023-05-24T08:34:58;94902.50;;;26.71;28.69
77723;BME280;67811;42.656;23.394;2023-05-24T08:37:24;94902.88;;;27.45;29.61
77723;BME280;67811;42.656;23.394;2023-05-24T08:39:49;94904.84;;;27.40;29.20
77723;BME280;67811;42.656;23.394;2023-05-24T08:42:15;94902.38;;;26.82;27.17
77723;BME280;67811;42.656;23.394;2023-05-24T08:44:47;94899.88;;;27.09;26.68
77723;BME280;67811;42.656;23.394;2023-05-24T08:47:13;94899.31;;;26.64;28.31
77723;BME280;67811;42.656;23.394;2023-05-24T08:49:40;94897.19;;;26.61;27.55
77723;BME280;67811;42.656;23.394;2023-05-24T08:52:06;94902.88;;;27.26;26.67
77723;BME280;67811;42.656;23.394;2023-05-24T08:54:33;94898.69;;;27.53;25.68
77723;BME280;67811;42.656;23.394;2023-05-24T08:56:59;94905.88;;;27.44;25.65
77723;BME280;67811;42.656;23.394;2023-05-24T08:59:24;94888.16;;;27.46;25.57
77723;BME280;67811;42.656;23.394;2023-05-24T09:01:52;94892.00;;;27.97;25.62
77723;BME280;67811;42.656;23.394;2023-05-24T09:04:19;94893.22;;;28.18;25.46
77723;BME280;67811;42.656;23.394;2023-05-24T09:06:45;94898.28;;;27.78;25.52
77723;BME280;67811;42.656;23.394;2023-05-24T09:09:11;94897.72;;;27.81;25.40
77723;BME280;67811;42.656;23.394;2023-05-24T09:11:38;94896.81;;;28.32;26.19
77723;BME280;67811;42.656;23.394;2023-05-24T09:14:04;94892.09;;;28.79;25.04
77723;BME280;67811;42.656;23.394;2023-05-24T09:16:30;94896.81;;;28.87;24.60
77723;BME280;67811;42.656;23.394;2023-05-24T09:18:55;94891.91;;;28.76;23.59
77723;BME280;67811;42.656;23.394;2023-05-24T09:21:21;94891.69;;;28.86;24.70
77723;BME280;67811;42.656;23.394;2023-05-24T09:23:46;94890.06;;;28.99;24.46
77723;BME280;67811;42.656;23.394;2023-05-24T09:26:12;94898.00;;;29.23;24.43
77723;BME280;67811;42.656;23.394;2023-05-24T09:28:38;94884.56;;;29.62;23.56
77723;BME280;67811;42.656;23.394;2023-05-24T09:31:03;94883.47;;;29.50;22.63
77723;BME280;67811;42.656;23.394;2023-05-24T09:33:29;94886.19;;;29.86;22.11
77723;BME280;67811;42.656;23.394;2023-05-24T09:35:56;94886.63;;;29.07;22.55
77723;BME280;67811;42.656;23.394;2023-05-24T09:38:22;94885.56;;;29.30;22.83
77723;BME280;67811;42.656;23.394;2023-05-24T09:40:57;94884.06;;;29.60;23.20
77723;BME280;67811;42.656;23.394;2023-05-24T09:43:23;94885.69;;;29.84;22.92
77723;BME280;67811;42.656;23.394;2023-05-24T09:45:48;94889.81;;;29.23;23.07
77723;BME280;67811;42.656;23.394;2023-05-24T09:48:14;94878.56;;;28.60;22.92
77723;BME280;67811;42.656;23.394;2023-05-24T09:50:40;94878.28;;;28.48;24.53
77723;BME280;67811;42.656;23.394;2023-05-24T09:53:06;94869.38;;;28.70;24.35
77723;BME280;67811;42.656;23.394;2023-05-24T09:55:35;94874.50;;;29.13;23.25
77723;BME280;67811;42.656;23.394;2023-05-24T09:58:05;94877.25;;;29.35;23.66
77723;BME280;67811;42.656;23.394;2023-05-24T10:00:48;94870.19;;;28.71;23.12
77723;BME280;67811;42.656;23.394;2023-05-24T10:03:14;94869.53;;;27.72;22.03
77723;BME280;67811;42.656;23.394;2023-05-24T10:05:43;94877.72;;;27.53;23.51
77723;BME280;67811;42.656;23.394;2023-05-24T10:08:10;94875.88;;;27.30;23.14
77723;BME280;67811;42.656;23.394;2023-05-24T10:10:36;94867.31;;;27.74;22.56
77723;BME280;67811;42.656;23.394;2023-05-24T10:13:01;94869.94;;;27.09;23.41
77723;BME280;67811;42.656;23.394;2023-05-24T10:15:27;94870.84;;;25.80;23.62
77723;BME280;67811;42.656;23.394;2023-05-24T10:17:54;94877.25;;;25.94;24.07
77723;BME280;67811;42.656;23.394;2023-05-24T10:20:19;94869.09;;;25.94;23.58
77723;BME280;67811;42.656;23.394;2023-05-24T10:22:46;94866.69;;;26.40;23.73
77723;BME280;67811;42.656;23.394;2023-05-24T10:25:19;94869.19;;;27.03;24.41
77723;BME280;67811;42.656;23.394;2023-05-24T10:27:48;94871.69;;;27.19;23.93
77723;BME280;67811;42.656;23.394;2023-05-24T10:30:33;94859.84;;;27.47;23.31
77723;BME280;67811;42.656;23.394;2023-05-24T10:33:00;94860.34;;;27.49;23.69
77723;BME280;67811;42.656;23.394;2023-05-24T10:35:27;94852.94;;;27.88;23.33
77723;BME280;67811;42.656;23.394;2023-05-24T10:37:53;94849.31;;;27.92;22.01
77723;BME280;67811;42.656;23.394;2023-05-24T10:40:20;94853.25;;;28.00;20.85
77723;BME280;67811;42.656;23.394;2023-05-24T10:42:46;94848.75;;;27.25;23.11
77723;BME280;67811;42.656;23.394;2023-05-24T10:47:48;94844.06;;;25.68;25.22
77723;BME280;67811;42.656;23.394;2023-05-24T10:50:19;94838.78;;;26.11;24.38
77723;BME280;67811;42.656;23.394;2023-05-24T10:52:44;94841.09;;;26.46;24.30
77723;BME280;67811;42.656;23.394;2023-05-24T10:55:10;94842.53;;;26.39;23.97
77723;BME280;67811;42.656;23.394;2023-05-24T10:57:36;94827.16;;;26.05;25.64
77723;BME280;67811;42.656;23.394;2023-05-24T11:02:48;94841.75;;;27.00;24.59
77723;BME280;67811;42.656;23.394;2023-05-24T11:05:14;94834.53;;;27.47;24.66
77723;BME280;67811;42.656;23.394;2023-05-24T11:07:40;94835.25;;;27.52;23.69
77723;BME280;67811;42.656;23.394;2023-05-24T11:10:09;94823.59;;;28.12;22.51
77723;BME280;67811;42.656;23.394;2023-05-24T11:12:37;94819.28;;;27.97;23.57
77723;BME280;67811;42.656;23.394;2023-05-24T11:15:03;94822.53;;;28.13;23.20
77723;BME280;67811;42.656;23.394;2023-05-24T11:18:13;94817.47;;;28.20;23.56
77723;BME280;67811;42.656;23.394;2023-05-24T11:20:42;94823.41;;;27.11;24.61
77723;BME280;67811;42.656;23.394;2023-05-24T11:23:08;94813.91;;;27.60;24.67
77723;BME280;67811;42.656;23.394;2023-05-24T11:25:34;94822.34;;;27.77;23.57
77723;BME280;67811;42.656;23.394;2023-05-24T11:28:00;94828.16;;;27.19;24.20
77723;BME280;67811;42.656;23.394;2023-05-24T11:30:25;94828.97;;;26.82;24.44
77723;BME280;67811;42.656;23.394;2023-05-24T11:32:51;94825.97;;;26.59;25.16
77723;BME280;67811;42.656;23.394;2023-05-24T11:35:18;94812.06;;;27.22;24.60
77723;BME280;67811;42.656;23.394;2023-05-24T11:37:43;94807.13;;;27.43;24.53
77723;BME280;67811;42.656;23.394;2023-05-24T11:40:09;94811.69;;;26.91;25.36
77723;BME280;67811;42.656;23.394;2023-05-24T11:42:35;94800.78;;;27.15;25.04
77723;BME280;67811;42.656;23.394;2023-05-24T11:45:00;94814.84;;;26.61;26.71
77723;BME280;67811;42.656;23.394;2023-05-24T11:47:25;94814.41;;;26.06;25.54
77723;BME280;67811;42.656;23.394;2023-05-24T11:49:51;94814.59;;;26.57;26.07
77723;BME280;67811;42.656;23.394;2023-05-24T11:52:16;94800.31;;;27.08;25.42
77723;BME280;67811;42.656;23.394;2023-05-24T11:54:41;94797.44;;;27.51;24.55
77723;BME280;67811;42.656;23.394;2023-05-24T11:57:11;94789.72;;;28.04;24.12
77723;BME280;67811;42.656;23.394;2023-05-24T11:59:36;94790.84;;;28.58;23.49
77723;BME280;67811;42.656;23.394;2023-05-24T12:02:03;94778.94;;;28.41;23.05
77723;BME280;67811;42.656;23.394;2023-05-24T12:04:29;94775.97;;;28.65;23.21
77723;BME280;67811;42.656;23.394;2023-05-24T12:06:55;94779.22;;;29.03;22.85
77723;BME280;67811;42.656;23.394;2023-05-24T12:09:21;94778.69;;;29.37;22.78
77723;BME280;67811;42.656;23.394;2023-05-24T12:11:47;94780.47;;;28.97;22.01
77723;BME280;67811;42.656;23.394;2023-05-24T12:14:14;94772.25;;;28.60;22.39
77723;BME280;67811;42.656;23.394;2023-05-24T12:16:44;94781.22;;;27.78;22.61
77723;BME280;67811;42.656;23.394;2023-05-24T12:19:19;94765.09;;;27.96;23.42
77723;BME280;67811;42.656;23.394;2023-05-24T12:21:48;94763.78;;;27.47;23.64
77723;BME280;67811;42.656;23.394;2023-05-24T12:24:16;94751.75;;;27.34;23.86
77723;BME280;67811;42.656;23.394;2023-05-24T12:26:43;94769.88;;;26.49;25.87
77723;BME280;67811;42.656;23.394;2023-05-24T12:29:09;94766.59;;;26.71;25.69
77723;BME280;67811;42.656;23.394;2023-05-24T12:31:34;94760.56;;;26.93;25.63
77723;BME280;67811;42.656;23.394;2023-05-24T12:34:00;94761.50;;;27.54;24.84
77723;BME280;67811;42.656;23.394;2023-05-24T12:36:27;94756.13;;;27.49;24.94
77723;BME280;67811;42.656;23.394;2023-05-24T12:38:56;94757.72;;;28.10;24.06
77723;BME280;67811;42.656;23.394;2023-05-24T12:41:21;94757.91;;;28.55;23.55
77723;BME280;67811;42.656;23.394;2023-05-24T12:43:50;94749.41;;;27.60;24.59
77723;BME280;67811;42.656;23.394;2023-05-24T12:46:16;94747.22;;;28.31;24.55
77723;BME280;67811;42.656;23.394;2023-05-24T12:48:41;94753.50;;;28.81;22.89
77723;BME280;67811;42.656;23.394;2023-05-24T12:51:06;94742.63;;;28.68;23.01
77723;BME280;67811;42.656;23.394;2023-05-24T12:53:32;94741.44;;;28.60;23.18
77723;BME280;67811;42.656;23.394;2023-05-24T12:55:57;94744.22;;;28.32;23.86
77723;BME280;67811;42.656;23.394;2023-05-24T12:58:22;94744.91;;;28.52;23.54
77723;BME280;67811;42.656;23.394;2023-05-24T13:00:48;94744.09;;;28.87;22.20
77723;BME280;67811;42.656;23.394;2023-05-24T13:03:13;94740.72;;;29.04;22.07
77723;BME280;67811;42.656;23.394;2023-05-24T13:05:38;94744.34;;;29.13;22.00
77723;BME280;67811;42.656;23.394;2023-05-24T13:08:03;94736.72;;;29.02;22.35